Terminal Aerodrome Forecast
Issued by NWS

Home | Current Version | Previous Version | Text Only | Print | Product List | Glossary On
Versions: 1 2 3 4 5 6 7 8 9 10 11 12 13 14 15 16 17 18 19 20 21 22 23
000
FTUS43 KDVN 111409 AAA
TAFCID
TAF AMD
KCID 111409Z 1114/1212 14010KT 4SM BR VCSH OVC025
      TEMPO 1114/1116 1 1/2SM -DZ BR OVC015
     FM111600 15009KT 4SM -SN BR OVC020
      TEMPO 1118/1121 2SM -SN BR OVC015
     FM112100 30004KT 2SM BR OVC008
     FM120000 30010KT 5SM BR OVC010
     FM120300 31015KT P6SM OVC025=

USA.gov is the U.S. government's official web portal to all federal, state and local government web resources and services.